Hovedside
METAR-TAF:

METAR-TAF

Lufthavner :

Aalborg, Danmark

Aalborg lufthavn

breddegrad: 57-06N, lengdegrad: 009-51E, høyde over havet: 3 m

Gjeldene værobservasjon

Denne rapporten ble laget for 20 minutter siden, klokken 08:07 UTC
Vind 11 kt fra Sørøst
Temperatur 2°C
Luftfuktighet 87%
Trykk 1009 hPa
Sikt: 5000 m
Spredte skyer i en høyde av 1200 ft
Brutte skyer i en høyde av 1900 ft
lett snø, regn

METAR: EKYT 220807Z 13011KT 5000 -SNRA SCT012 BKN019 02/M00 Q1009

Tid: 09:27 (08:27 UTC)

Varsel

Denne rapporten ble laget for 3 timer og 18 minutter siden, klokken 05:09 UTC
Varsel gyldig fra 22. klokken 06 UTC til 23. klokken 06 UTC
Vind 10 kt fra Sørøst
Sikt: 8000 m
Spredte skyer i en høyde av 800 ft
Brutte skyer i en høyde av 1500 ft
Midlertidig
fra 22. klokken 06 UTC til 23. klokken 06 UTC
Sikt: 4000 m
Brutte skyer i en høyde av 500 ft
dis, lett snø

TAF: EKYT 220509Z 2206/2306 13010KT 8000 SCT008 BKN015 TEMPO 2206/2306 4000 BR -SN BKN005

Værobservasjoner og værvarsel for over 4000 flyplasser (METAR- og TAF-rapporter).

Tilgjengelige stasjoner er representert av de røde og gule prikkene på kartet.

Hold musepekeren over prikken for å se navnet på stasjonen.

Klikk så for å se værobservasjoner og -varsler.

For å forandre kartet kan du klikke på den grønne knappen med svart kryss for å zoome inn, på den grønne knappen med strek for å zoome ut, eller på de grønne pilene for å se tilstøtende kart.


METAR-TAF: